Lowmansville, Kentucky
Current Conditions -  °F | °C
As of 9:55 PM on Monday 20 Oct 2014 (Local Time) from KSJS Reporting Station
Broken Clouds Broken Clouds  
Wind Chill: 55°   Ceiling: 6000
Heat Index: 55°   Visibility: 10mi
Dew Point: 51°   Wind: 3mph
Humidity: 88%   Direction: 220°SW
Pressure: 29.96"   Gusts: NA
Location:  37.92°N, 82.73°W
Report Text: KSJS 210155Z AUTO 22003KT 10SM SCT046 BKN060 BKN070 13/11 A2996 RMK AO2 T01260107
Loading
Personal Weather Stations






























Interactive Weather Map
Tropical Storm Tracking
New forecast layout! Learn more

10-Day Weather Forecast

Advertisements
Track Severe Weather on mobile